< < Back
Terminal Aerodrome Forecast


Current Version              Previous Versions:   1  2  3  4  5  6  7  8  9  

Terminal Aerodrome Forecast

161
FTUS42 KGSP 012335
TAFAVL
TAF
KAVL 012335Z 0200/0224 15005KT P6SM FEW250
     FM020500 15004KT P6SM SCT045
     FM020800 16005KT P6SM BKN040
     FM021200 16007KT P6SM BKN020
     FM021700 17007KT P6SM VCSH OVC008=



Latest METAR

903
SAUS70 KWBC 020400 RRD
MTRAVL
METAR KAVL 020354Z AUTO 16004KT 10SM CLR 12/01 A3021 RMK AO2 SLP216
T01220011


USA.gov is the U.S. government's official web portal to all federal, state and local government web resources and services.